createdAt,value
2023-02-06T00:01:30.533Z,3.48
2023-02-06T00:03:58.749Z,3.37
2023-02-06T00:06:26.728Z,3.35
2023-02-06T00:08:56.550Z,3.29
2023-02-06T00:11:24.726Z,3.25
2023-02-06T00:13:53.183Z,3.21
2023-02-06T00:16:22.986Z,3.32
2023-02-06T00:18:51.758Z,3.26
2023-02-06T00:21:22.088Z,3.29
2023-02-06T00:23:50.720Z,3.34
2023-02-06T00:26:20.196Z,3.39
2023-02-06T00:28:48.709Z,3.41
2023-02-06T00:31:17.162Z,3.44
2023-02-06T00:33:45.124Z,3.43
2023-02-06T00:36:13.350Z,3.43
2023-02-06T00:38:41.385Z,3.49
2023-02-06T00:41:09.583Z,3.44
2023-02-06T00:43:38.978Z,3.45
2023-02-06T00:46:07.068Z,3.43
2023-02-06T00:48:34.932Z,3.35
2023-02-06T00:51:02.886Z,3.35
2023-02-06T00:53:30.762Z,3.35
2023-02-06T00:55:58.841Z,3.31
2023-02-06T00:58:26.905Z,3.29
2023-02-06T01:00:58.234Z,3.34
2023-02-06T01:03:27.052Z,3.32
2023-02-06T01:05:54.979Z,3.31
2023-02-06T01:08:23.026Z,3.36
2023-02-06T01:10:50.910Z,3.37
2023-02-06T01:13:18.884Z,3.36
2023-02-06T01:15:46.950Z,3.31
2023-02-06T01:18:17.564Z,3.38
2023-02-06T01:20:45.705Z,3.32
2023-02-06T01:23:13.857Z,3.24
2023-02-06T01:25:41.819Z,3.23
2023-02-06T01:28:09.752Z,3.25
2023-02-06T01:30:37.723Z,3.25
2023-02-06T01:33:05.752Z,3.22
2023-02-06T01:35:35.449Z,3.30
2023-02-06T01:38:03.510Z,3.26
2023-02-06T01:40:31.483Z,3.20
2023-02-06T01:42:59.589Z,3.19
2023-02-06T01:45:46.294Z,3.24
2023-02-06T01:48:22.150Z,3.22
2023-02-06T01:50:54.980Z,3.14
2023-02-06T01:53:24.519Z,3.04
2023-02-06T01:55:55.805Z,3.10
2023-02-06T01:58:29.223Z,3.11
2023-02-06T02:00:58.781Z,3.18
2023-02-06T02:03:28.060Z,3.13
2023-02-06T02:06:02.386Z,3.10
2023-02-06T02:08:35.227Z,3.11
2023-02-06T02:11:05.484Z,3.02
2023-02-06T02:13:36.571Z,2.97
2023-02-06T02:16:13.988Z,2.87
2023-02-06T02:19:03.813Z,2.91
2023-02-06T02:22:04.737Z,2.91
2023-02-06T02:24:52.286Z,2.89
2023-02-06T02:28:06.794Z,2.87
2023-02-06T02:30:52.578Z,2.85
2023-02-06T02:33:50.705Z,2.90
2023-02-06T02:36:27.326Z,2.91
2023-02-06T02:39:04.467Z,2.93
2023-02-06T02:41:39.242Z,2.91
2023-02-06T02:44:11.532Z,2.81
2023-02-06T02:46:42.473Z,2.85
2023-02-06T02:49:14.457Z,2.87
2023-02-06T02:51:44.904Z,2.80
2023-02-06T02:54:12.813Z,2.80
2023-02-06T02:56:40.931Z,2.78
2023-02-06T02:59:14.447Z,2.84
2023-02-06T03:01:49.852Z,2.84
2023-02-06T03:04:24.083Z,2.77
2023-02-06T03:07:10.659Z,2.75
2023-02-06T03:09:52.357Z,2.73
2023-02-06T03:12:27.019Z,2.72
2023-02-06T03:14:59.298Z,2.76
2023-02-06T03:17:34.562Z,2.77
2023-02-06T03:20:05.412Z,2.78
2023-02-06T03:22:37.136Z,2.85
2023-02-06T03:25:08.606Z,2.79
2023-02-06T03:27:40.246Z,2.84
2023-02-06T03:30:10.751Z,2.87
2023-02-06T03:32:43.455Z,2.81
2023-02-06T03:35:16.928Z,2.84
2023-02-06T03:37:47.946Z,2.88
2023-02-06T03:40:16.636Z,2.88
2023-02-06T03:42:49.631Z,2.87
2023-02-06T03:45:24.250Z,2.91
2023-02-06T03:47:54.466Z,2.87
2023-02-06T03:50:24.715Z,2.82
2023-02-06T03:52:57.394Z,2.85
2023-02-06T03:55:26.251Z,2.92
2023-02-06T03:57:56.881Z,2.89
2023-02-06T04:00:25.466Z,2.82
2023-02-06T04:02:56.203Z,2.81
2023-02-06T04:05:24.208Z,2.86
2023-02-06T04:07:54.013Z,2.87
2023-02-06T04:10:21.965Z,2.86
2023-02-06T04:12:50.015Z,2.88
2023-02-06T04:15:18.056Z,2.87
2023-02-06T04:17:58.846Z,2.88
2023-02-06T04:20:27.949Z,2.95
2023-02-06T04:22:57.514Z,2.97
2023-02-06T04:25:25.928Z,2.99
2023-02-06T04:27:53.935Z,2.97
2023-02-06T04:30:22.305Z,3.00
2023-02-06T04:32:50.259Z,3.03
2023-02-06T04:35:18.097Z,3.07
2023-02-06T04:37:46.050Z,3.03
2023-02-06T04:40:15.418Z,3.08
2023-02-06T04:42:43.422Z,3.08
2023-02-06T04:45:11.643Z,3.02
2023-02-06T04:47:39.776Z,2.93
2023-02-06T04:50:08.601Z,2.82
2023-02-06T04:52:36.662Z,2.84
2023-02-06T04:55:04.858Z,2.83
2023-02-06T04:57:34.198Z,2.88
2023-02-06T05:00:02.133Z,2.83
2023-02-06T05:02:30.056Z,2.84
2023-02-06T05:04:58.225Z,2.86
2023-02-06T05:07:26.393Z,2.84
2023-02-06T05:09:54.316Z,2.86
2023-02-06T05:12:24.611Z,2.87
2023-02-06T05:14:53.959Z,2.92
2023-02-06T05:17:23.690Z,2.90
2023-02-06T05:19:51.702Z,2.88
2023-02-06T05:22:19.899Z,2.93
2023-02-06T05:24:51.798Z,2.96
2023-02-06T05:27:20.493Z,2.96
2023-02-06T05:29:49.450Z,2.91
2023-02-06T05:32:20.109Z,2.89
2023-02-06T05:34:48.035Z,2.89
2023-02-06T05:37:15.903Z,2.90
2023-02-06T05:39:43.938Z,2.88
2023-02-06T05:42:11.848Z,2.83
2023-02-06T05:44:39.696Z,2.89
2023-02-06T05:47:07.651Z,2.83
2023-02-06T05:49:36.967Z,2.81
2023-02-06T05:52:04.969Z,2.81
2023-02-06T05:54:33.232Z,2.83
2023-02-06T05:57:01.610Z,2.79
2023-02-06T05:59:30.362Z,2.75
2023-02-06T06:01:58.789Z,2.73
2023-02-06T06:04:27.274Z,2.75
2023-02-06T06:06:56.896Z,2.75
2023-02-06T06:09:25.238Z,2.78
2023-02-06T06:11:53.393Z,2.76
2023-02-06T06:14:21.647Z,2.82
2023-02-06T06:16:49.572Z,2.86
2023-02-06T06:19:17.936Z,2.87
2023-02-06T06:21:45.823Z,2.89
2023-02-06T06:24:15.201Z,2.92
2023-02-06T06:26:43.079Z,2.88
2023-02-06T06:29:10.965Z,2.89
2023-02-06T06:31:39.038Z,2.84
2023-02-06T06:34:06.919Z,2.88
2023-02-06T06:36:34.848Z,2.89
2023-02-06T06:39:03.259Z,2.94
2023-02-06T06:41:32.513Z,2.99
2023-02-06T06:44:00.392Z,3.03
2023-02-06T06:46:28.284Z,3.02
2023-02-06T06:48:56.268Z,3.05
2023-02-06T06:51:24.090Z,3.03
2023-02-06T06:53:51.904Z,3.04
2023-02-06T06:56:19.723Z,3.06
2023-02-06T06:58:49.088Z,3.05
2023-02-06T07:01:17.637Z,3.05
2023-02-06T07:03:48.180Z,3.06
2023-02-06T07:06:16.659Z,3.07
2023-02-06T07:08:44.592Z,3.09
2023-02-06T07:11:14.581Z,3.12
2023-02-06T07:13:43.018Z,3.18
2023-02-06T07:16:12.974Z,3.23
2023-02-06T07:18:41.977Z,3.27
2023-02-06T07:21:10.338Z,3.33
2023-02-06T07:23:38.715Z,3.40
2023-02-06T07:26:06.853Z,3.45
2023-02-06T07:28:35.111Z,3.51
2023-02-06T07:31:04.106Z,3.56
2023-02-06T07:33:33.405Z,3.62
2023-02-06T07:36:03.882Z,3.70
2023-02-06T07:38:32.570Z,3.56
2023-02-06T07:41:02.596Z,3.44
2023-02-06T07:43:30.642Z,3.38
2023-02-06T07:46:00.925Z,3.66
2023-02-06T07:48:29.128Z,3.81
2023-02-06T07:50:58.611Z,3.79
2023-02-06T07:53:26.495Z,3.80
2023-02-06T07:55:54.305Z,4.03
2023-02-06T07:58:22.089Z,4.15
2023-02-06T08:00:50.122Z,4.26
2023-02-06T08:03:18.070Z,4.37
2023-02-06T08:05:45.960Z,4.41
2023-02-06T08:08:15.363Z,4.56
2023-02-06T08:10:43.191Z,4.57
2023-02-06T08:13:11.091Z,4.63
2023-02-06T08:15:38.934Z,4.72
2023-02-06T08:18:06.779Z,4.63
2023-02-06T08:20:34.606Z,4.57
2023-02-06T08:23:02.588Z,4.46
2023-02-06T08:25:31.854Z,4.47
2023-02-06T08:27:59.728Z,4.41
2023-02-06T08:30:27.722Z,4.34
2023-02-06T08:32:55.575Z,4.30
2023-02-06T08:35:23.479Z,4.23
2023-02-06T08:37:51.344Z,4.29
2023-02-06T08:40:21.218Z,4.31
2023-02-06T08:42:52.530Z,4.40
2023-02-06T08:45:20.682Z,4.44
2023-02-06T08:47:48.525Z,4.55
2023-02-06T08:50:17.065Z,4.56
2023-02-06T08:52:44.921Z,4.54
2023-02-06T08:55:12.735Z,4.67
2023-02-06T08:57:40.603Z,4.83
2023-02-06T09:00:11.407Z,4.98
2023-02-06T09:02:39.283Z,5.13
2023-02-06T09:05:07.447Z,5.10
2023-02-06T09:07:35.868Z,4.91
2023-02-06T09:10:05.332Z,5.09
2023-02-06T09:12:33.158Z,5.24
2023-02-06T09:15:01.667Z,5.33
2023-02-06T09:17:31.787Z,5.28
2023-02-06T09:19:59.624Z,5.31
2023-02-06T09:22:28.038Z,5.33
2023-02-06T09:24:56.142Z,5.38
2023-02-06T09:27:23.962Z,5.29
2023-02-06T09:29:51.729Z,5.48
2023-02-06T09:32:19.665Z,5.54
2023-02-06T09:34:49.447Z,5.51
2023-02-06T09:37:17.820Z,5.46
2023-02-06T09:39:45.747Z,5.37
2023-02-06T09:42:20.409Z,5.44
2023-02-06T09:44:53.596Z,5.51
2023-02-06T09:47:25.865Z,5.55
2023-02-06T09:49:59.059Z,5.60
2023-02-06T09:52:56.879Z,5.37
2023-02-06T09:55:31.316Z,5.58
2023-02-06T09:58:08.631Z,5.84
2023-02-06T10:00:45.642Z,5.67
2023-02-06T10:03:36.679Z,5.90
2023-02-06T10:06:15.828Z,6.08
2023-02-06T10:08:50.415Z,6.18
2023-02-06T10:11:26.631Z,6.32
2023-02-06T10:13:58.785Z,6.35
2023-02-06T10:16:37.768Z,6.19
2023-02-06T10:19:10.668Z,6.05
2023-02-06T10:21:42.915Z,5.98
2023-02-06T10:24:19.995Z,5.92
2023-02-06T10:26:49.073Z,5.74
2023-02-06T10:29:22.554Z,5.53
2023-02-06T10:32:07.419Z,5.57
2023-02-06T10:35:06.936Z,5.73
2023-02-06T10:38:02.683Z,5.52
2023-02-06T10:40:40.336Z,5.45
2023-02-06T10:43:18.327Z,5.32
2023-02-06T10:45:53.005Z,5.34
2023-02-06T10:48:29.657Z,5.30
2023-02-06T10:51:01.773Z,5.22
2023-02-06T10:53:35.801Z,5.43
2023-02-06T10:56:07.868Z,5.32
2023-02-06T10:58:41.761Z,5.24
2023-02-06T11:01:25.631Z,5.33
2023-02-06T11:04:00.119Z,5.35
2023-02-06T11:06:31.164Z,5.36
2023-02-06T11:09:00.691Z,5.21
2023-02-06T11:11:30.837Z,5.36
2023-02-06T11:14:09.092Z,5.64
2023-02-06T11:16:37.606Z,5.68
2023-02-06T11:19:18.919Z,5.61
2023-02-06T11:21:51.770Z,5.53
2023-02-06T11:24:25.568Z,5.58
2023-02-06T11:26:58.506Z,5.44
2023-02-06T11:29:28.925Z,5.54
2023-02-06T11:31:59.706Z,5.48
2023-02-06T11:34:32.751Z,5.59
2023-02-06T11:37:02.977Z,5.57
2023-02-06T11:39:33.674Z,5.54
2023-02-06T11:42:04.623Z,5.68
2023-02-06T11:44:38.110Z,5.94
2023-02-06T11:47:29.441Z,6.07
2023-02-06T11:49:57.783Z,6.15
2023-02-06T11:52:31.685Z,6.23
2023-02-06T11:55:03.131Z,6.30
2023-02-06T11:57:36.100Z,6.25
2023-02-06T12:00:21.267Z,6.26
2023-02-06T12:02:53.884Z,6.11
2023-02-06T12:05:26.122Z,6.11
2023-02-06T12:08:00.702Z,5.80
2023-02-06T12:10:32.569Z,5.61
2023-02-06T12:13:06.830Z,5.46
2023-02-06T12:15:47.896Z,5.44
2023-02-06T12:18:20.004Z,5.61
2023-02-06T12:20:56.472Z,5.68
2023-02-06T12:23:29.187Z,5.66
2023-02-06T12:26:01.517Z,5.47
2023-02-06T12:28:39.764Z,5.45
2023-02-06T12:31:14.169Z,5.47
2023-02-06T12:33:45.784Z,5.72
2023-02-06T12:36:18.102Z,5.62
2023-02-06T12:38:50.146Z,5.70
2023-02-06T12:41:40.767Z,5.71
2023-02-06T12:44:22.966Z,5.42
2023-02-06T12:46:56.287Z,5.41
2023-02-06T12:49:29.505Z,5.44
2023-02-06T12:52:04.891Z,5.46
2023-02-06T12:54:38.771Z,5.57
2023-02-06T12:57:15.670Z,5.63
2023-02-06T13:00:12.861Z,5.71
2023-02-06T13:03:22.261Z,5.58
2023-02-06T13:05:53.652Z,5.38
2023-02-06T13:08:27.732Z,5.35
2023-02-06T13:11:05.106Z,5.35
2023-02-06T13:13:38.066Z,5.37
2023-02-06T13:16:07.911Z,5.38
2023-02-06T13:19:01.557Z,5.19
2023-02-06T13:21:32.374Z,5.26
2023-02-06T13:24:18.854Z,5.47
2023-02-06T13:27:04.284Z,5.62
2023-02-06T13:29:34.782Z,5.74
2023-02-06T13:32:30.875Z,5.62
2023-02-06T13:35:07.919Z,5.71
2023-02-06T13:37:38.296Z,5.47
2023-02-06T13:40:20.989Z,5.44
2023-02-06T13:42:52.809Z,5.48
2023-02-06T13:45:25.999Z,5.61
2023-02-06T13:48:24.452Z,5.61
2023-02-06T13:51:08.956Z,5.72
2023-02-06T13:54:12.745Z,5.67
2023-02-06T13:56:59.651Z,5.79
2023-02-06T13:59:31.227Z,5.88
2023-02-06T14:02:12.189Z,5.95
2023-02-06T14:04:41.182Z,5.93
2023-02-06T14:07:31.486Z,6.01
2023-02-06T14:10:38.632Z,6.15
2023-02-06T14:13:20.032Z,6.01
2023-02-06T14:15:55.852Z,6.00
2023-02-06T14:18:38.284Z,6.03
2023-02-06T14:21:17.001Z,6.03
2023-02-06T14:24:16.455Z,6.03
2023-02-06T14:26:53.836Z,6.03
2023-02-06T14:29:31.674Z,5.91
2023-02-06T14:32:12.868Z,5.98
2023-02-06T14:34:56.264Z,5.83
2023-02-06T14:37:47.828Z,5.72
2023-02-06T14:40:22.209Z,5.75
2023-02-06T14:42:51.594Z,5.83
2023-02-06T14:45:33.821Z,5.74
2023-02-06T14:48:14.443Z,5.62
2023-02-06T14:50:49.513Z,5.67
2023-02-06T14:53:23.162Z,5.67
2023-02-06T14:55:51.191Z,5.71
2023-02-06T14:58:22.014Z,5.59
2023-02-06T15:00:49.876Z,5.60
2023-02-06T15:03:19.246Z,5.64
2023-02-06T15:05:58.735Z,5.59
2023-02-06T15:08:26.587Z,5.56
2023-02-06T15:10:59.226Z,5.48
2023-02-06T15:13:34.837Z,5.45
2023-02-06T15:16:04.852Z,5.54
2023-02-06T15:18:33.818Z,5.35
2023-02-06T15:21:08.141Z,5.31
2023-02-06T15:23:50.023Z,5.31
2023-02-06T15:26:32.167Z,5.28
2023-02-06T15:29:02.866Z,5.22
2023-02-06T15:31:32.065Z,5.26
2023-02-06T15:34:07.437Z,5.32
2023-02-06T15:36:41.520Z,5.30
2023-02-06T15:39:12.009Z,5.26
2023-02-06T15:41:41.372Z,5.26
2023-02-06T15:44:13.527Z,5.22
2023-02-06T15:46:44.465Z,5.25
2023-02-06T15:49:20.101Z,5.26
2023-02-06T15:51:58.431Z,5.26
2023-02-06T15:54:30.537Z,5.19
2023-02-06T15:57:09.820Z,5.21
2023-02-06T15:59:41.922Z,5.25
2023-02-06T16:02:26.216Z,5.28
2023-02-06T16:04:55.747Z,5.30
2023-02-06T16:07:27.598Z,5.31
2023-02-06T16:09:57.962Z,5.26
2023-02-06T16:12:26.474Z,5.26
2023-02-06T16:15:04.633Z,5.29
2023-02-06T16:17:35.556Z,5.20
2023-02-06T16:20:05.409Z,5.15
2023-02-06T16:22:37.819Z,5.24
2023-02-06T16:25:22.012Z,5.25
2023-02-06T16:27:51.261Z,5.19
2023-02-06T16:30:30.041Z,5.22
2023-02-06T16:33:00.259Z,5.18
2023-02-06T16:35:28.210Z,5.05
2023-02-06T16:37:57.676Z,5.05
2023-02-06T16:40:26.231Z,5.10
2023-02-06T16:42:54.242Z,5.09
2023-02-06T16:45:23.965Z,5.12
2023-02-06T16:47:52.134Z,5.07
2023-02-06T16:50:21.627Z,5.05
2023-02-06T16:52:51.806Z,5.03
2023-02-06T16:55:25.290Z,5.05
2023-02-06T16:57:55.457Z,4.99
2023-02-06T17:00:25.881Z,4.99
2023-02-06T17:02:54.627Z,4.86
2023-02-06T17:05:24.601Z,4.90
2023-02-06T17:07:53.131Z,4.87
2023-02-06T17:10:24.635Z,4.86
2023-02-06T17:12:53.010Z,4.86
2023-02-06T17:15:21.196Z,4.87
2023-02-06T17:17:53.755Z,4.84
2023-02-06T17:20:36.064Z,4.85
2023-02-06T17:23:04.875Z,4.84
2023-02-06T17:25:34.737Z,4.83
2023-02-06T17:28:03.216Z,4.82
2023-02-06T17:30:31.175Z,4.78
2023-02-06T17:33:01.914Z,4.77
2023-02-06T17:35:31.781Z,4.75
2023-02-06T17:38:00.289Z,4.77
2023-02-06T17:40:33.977Z,4.81
2023-02-06T17:43:04.708Z,4.80
2023-02-06T17:45:33.195Z,4.70
2023-02-06T17:48:01.568Z,4.64
2023-02-06T17:50:30.675Z,4.66
2023-02-06T17:53:00.296Z,4.68
2023-02-06T17:55:29.211Z,4.64
2023-02-06T17:58:10.905Z,4.65
2023-02-06T18:00:39.347Z,4.59
2023-02-06T18:03:07.457Z,4.53
2023-02-06T18:05:35.675Z,4.55
2023-02-06T18:08:03.860Z,4.48
2023-02-06T18:10:31.946Z,4.44
2023-02-06T18:12:59.836Z,4.39
2023-02-06T18:15:31.583Z,4.37
2023-02-06T18:18:01.195Z,4.30
2023-02-06T18:20:30.534Z,4.26
2023-02-06T18:22:58.749Z,4.30
2023-02-06T18:25:26.673Z,4.29
2023-02-06T18:27:54.698Z,4.27
2023-02-06T18:30:22.813Z,4.27
2023-02-06T18:32:52.094Z,4.24
2023-02-06T18:35:20.708Z,4.20
2023-02-06T18:37:50.068Z,4.17
2023-02-06T18:40:18.476Z,4.18
2023-02-06T18:42:54.206Z,4.18
2023-02-06T18:45:23.297Z,4.19
2023-02-06T18:47:53.267Z,4.14
2023-02-06T18:50:22.539Z,4.12
2023-02-06T18:52:50.930Z,4.16
2023-02-06T18:55:18.986Z,4.14
2023-02-06T18:57:47.406Z,4.12
2023-02-06T19:00:17.226Z,4.10
2023-02-06T19:02:45.239Z,4.09
2023-02-06T19:05:14.959Z,4.04
2023-02-06T19:07:43.184Z,4.01
2023-02-06T19:10:13.261Z,3.96
2023-02-06T19:12:41.102Z,3.96
2023-02-06T19:15:10.389Z,3.96
2023-02-06T19:17:42.577Z,3.98
2023-02-06T19:20:23.304Z,3.96
2023-02-06T19:22:52.794Z,3.94
2023-02-06T19:25:20.830Z,3.89
2023-02-06T19:27:48.905Z,3.85
2023-02-06T19:30:17.007Z,3.90
2023-02-06T19:32:45.024Z,3.89
2023-02-06T19:35:15.542Z,3.89
2023-02-06T19:37:47.113Z,3.82
2023-02-06T19:40:27.236Z,3.83
2023-02-06T19:42:55.502Z,3.82
2023-02-06T19:45:23.881Z,3.85
2023-02-06T19:47:51.909Z,3.88
2023-02-06T19:50:20.070Z,3.87
2023-02-06T19:52:50.315Z,3.84
2023-02-06T19:55:19.687Z,3.79
2023-02-06T19:57:47.755Z,3.73
2023-02-06T20:00:16.309Z,3.70
2023-02-06T20:02:44.435Z,3.70
2023-02-06T20:05:12.639Z,3.74
2023-02-06T20:07:43.463Z,3.73
2023-02-06T20:10:13.193Z,3.59
2023-02-06T20:12:41.344Z,3.59
2023-02-06T20:15:10.190Z,3.50
2023-02-06T20:17:38.167Z,3.45
2023-02-06T20:20:07.925Z,3.43
2023-02-06T20:23:24.592Z,3.38
2023-02-06T20:25:54.853Z,3.39
2023-02-06T20:28:25.052Z,3.33
2023-02-06T20:33:46.124Z,3.23
2023-02-06T20:39:16.874Z,3.18
2023-02-06T20:42:05.908Z,3.09
2023-02-06T20:44:59.878Z,3.06
2023-02-06T20:47:30.870Z,3.02
2023-02-06T20:50:17.660Z,3.05
2023-02-06T20:53:09.704Z,3.02
2023-02-06T20:56:15.108Z,3.01
2023-02-06T20:58:45.381Z,2.98
2023-02-06T21:01:16.628Z,3.00
2023-02-06T21:03:49.195Z,2.94
2023-02-06T21:06:19.079Z,2.98
2023-02-06T21:08:56.552Z,2.96
2023-02-06T21:11:30.363Z,2.91
2023-02-06T21:14:05.137Z,2.92
2023-02-06T21:16:34.553Z,2.87
2023-02-06T21:19:03.486Z,2.80
2023-02-06T21:21:32.071Z,2.77
2023-02-06T21:24:00.568Z,2.79
2023-02-06T21:26:29.562Z,2.85
2023-02-06T21:28:59.765Z,2.82
2023-02-06T21:31:36.879Z,2.80
2023-02-06T21:34:09.096Z,2.82
2023-02-06T21:36:41.837Z,2.84
2023-02-06T21:39:10.664Z,2.81
2023-02-06T21:41:38.767Z,2.76
2023-02-06T21:44:08.192Z,2.76
2023-02-06T21:46:36.331Z,2.78
2023-02-06T21:49:06.338Z,2.79
2023-02-06T21:51:34.455Z,2.79
2023-02-06T21:54:02.945Z,2.75
2023-02-06T21:56:32.110Z,2.71
2023-02-06T21:59:00.184Z,2.70
2023-02-06T22:01:33.121Z,2.72
2023-02-06T22:04:02.392Z,2.71
2023-02-06T22:06:30.765Z,2.68
2023-02-06T22:09:05.159Z,2.66
2023-02-06T22:11:33.657Z,2.66
2023-02-06T22:14:03.836Z,2.61
2023-02-06T22:16:33.927Z,2.53
2023-02-06T22:19:02.024Z,2.60
2023-02-06T22:21:31.696Z,2.60
2023-02-06T22:24:01.589Z,2.62
2023-02-06T22:26:31.241Z,2.69
2023-02-06T22:28:59.610Z,2.68
2023-02-06T22:31:31.320Z,2.70
2023-02-06T22:34:03.740Z,2.75
2023-02-06T22:36:33.837Z,2.73
2023-02-06T22:39:05.068Z,2.69
2023-02-06T22:41:33.568Z,2.68
2023-02-06T22:44:01.603Z,2.61
2023-02-06T22:46:31.329Z,2.52
2023-02-06T22:49:01.171Z,2.47
2023-02-06T22:51:29.855Z,2.49
2023-02-06T22:53:57.745Z,2.53
2023-02-06T22:56:37.313Z,2.47
2023-02-06T22:59:07.870Z,2.41
2023-02-06T23:01:38.285Z,2.38
2023-02-06T23:04:13.908Z,2.41
2023-02-06T23:06:43.387Z,2.49
2023-02-06T23:09:14.955Z,2.40
2023-02-06T23:11:45.791Z,2.46
2023-02-06T23:14:15.270Z,2.38
2023-02-06T23:16:43.959Z,2.31
2023-02-06T23:19:15.167Z,2.27
2023-02-06T23:21:45.245Z,2.27
2023-02-06T23:24:13.947Z,2.22
2023-02-06T23:26:42.926Z,2.23
2023-02-06T23:29:15.707Z,2.24
2023-02-06T23:31:45.894Z,2.21
2023-02-06T23:34:15.786Z,2.17
2023-02-06T23:36:44.106Z,2.17
2023-02-06T23:39:12.454Z,2.23
2023-02-06T23:41:40.417Z,2.21
2023-02-06T23:44:09.775Z,2.21
2023-02-06T23:46:39.296Z,2.12
2023-02-06T23:49:07.641Z,2.17
2023-02-06T23:51:37.951Z,2.14
2023-02-06T23:54:06.953Z,2.11
2023-02-06T23:56:35.825Z,2.07
2023-02-06T23:59:04.538Z,2.03
